sensor_id;sensor_type;location;lat;lon;timestamp;P1;durP1;ratioP1;P2;durP2;ratioP2
40931;SDS011;36257;46.052;12.540;2023-04-24T00:01:47;11.57;;;10.45;;
40931;SDS011;36257;46.052;12.540;2023-04-24T00:04:13;10.85;;;9.70;;
40931;SDS011;36257;46.052;12.540;2023-04-24T00:06:41;10.98;;;9.10;;
40931;SDS011;36257;46.052;12.540;2023-04-24T00:09:07;10.88;;;9.18;;
40931;SDS011;36257;46.052;12.540;2023-04-24T00:11:35;10.82;;;8.93;;
40931;SDS011;36257;46.052;12.540;2023-04-24T00:14:01;10.18;;;8.75;;
40931;SDS011;36257;46.052;12.540;2023-04-24T00:16:27;11.70;;;9.38;;
40931;SDS011;36257;46.052;12.540;2023-04-24T00:18:53;10.13;;;9.13;;
40931;SDS011;36257;46.052;12.540;2023-04-24T00:21:19;9.35;;;8.43;;
40931;SDS011;36257;46.052;12.540;2023-04-24T00:23:45;10.10;;;7.72;;
40931;SDS011;36257;46.052;12.540;2023-04-24T00:26:11;8.95;;;8.05;;
40931;SDS011;36257;46.052;12.540;2023-04-24T00:28:36;11.68;;;8.63;;
40931;SDS011;36257;46.052;12.540;2023-04-24T00:31:02;9.55;;;8.18;;
40931;SDS011;36257;46.052;12.540;2023-04-24T00:33:28;10.32;;;8.85;;
40931;SDS011;36257;46.052;12.540;2023-04-24T00:35:53;11.10;;;8.73;;
40931;SDS011;36257;46.052;12.540;2023-04-24T00:38:19;9.38;;;8.23;;
40931;SDS011;36257;46.052;12.540;2023-04-24T00:40:45;9.20;;;8.30;;
40931;SDS011;36257;46.052;12.540;2023-04-24T00:43:12;9.07;;;7.68;;
40931;SDS011;36257;46.052;12.540;2023-04-24T00:45:38;9.18;;;7.38;;
40931;SDS011;36257;46.052;12.540;2023-04-24T00:48:03;7.38;;;6.78;;
40931;SDS011;36257;46.052;12.540;2023-04-24T00:50:30;7.82;;;7.03;;
40931;SDS011;36257;46.052;12.540;2023-04-24T00:52:57;8.07;;;6.85;;
40931;SDS011;36257;46.052;12.540;2023-04-24T00:55:22;8.98;;;7.32;;
40931;SDS011;36257;46.052;12.540;2023-04-24T00:57:49;9.30;;;7.73;;
40931;SDS011;36257;46.052;12.540;2023-04-24T01:00:15;7.60;;;6.65;;
40931;SDS011;36257;46.052;12.540;2023-04-24T01:02:41;8.82;;;7.07;;
40931;SDS011;36257;46.052;12.540;2023-04-24T01:05:10;7.65;;;6.95;;
40931;SDS011;36257;46.052;12.540;2023-04-24T01:07:43;7.35;;;6.53;;
40931;SDS011;36257;46.052;12.540;2023-04-24T01:10:13;7.60;;;6.80;;
40931;SDS011;36257;46.052;12.540;2023-04-24T01:12:39;7.10;;;6.40;;
40931;SDS011;36257;46.052;12.540;2023-04-24T01:15:05;7.32;;;6.65;;
40931;SDS011;36257;46.052;12.540;2023-04-24T01:17:32;9.52;;;6.72;;
40931;SDS011;36257;46.052;12.540;2023-04-24T01:19:58;7.25;;;6.63;;
40931;SDS011;36257;46.052;12.540;2023-04-24T01:22:25;8.43;;;6.88;;
40931;SDS011;36257;46.052;12.540;2023-04-24T01:24:51;7.25;;;6.10;;
40931;SDS011;36257;46.052;12.540;2023-04-24T01:27:17;9.55;;;7.18;;
40931;SDS011;36257;46.052;12.540;2023-04-24T01:29:44;7.90;;;6.32;;
40931;SDS011;36257;46.052;12.540;2023-04-24T01:32:10;6.63;;;5.45;;
40931;SDS011;36257;46.052;12.540;2023-04-24T01:34:36;6.47;;;5.20;;
40931;SDS011;36257;46.052;12.540;2023-04-24T01:37:03;6.30;;;5.63;;
40931;SDS011;36257;46.052;12.540;2023-04-24T01:39:30;7.03;;;4.70;;
40931;SDS011;36257;46.052;12.540;2023-04-24T01:41:56;5.78;;;5.20;;
40931;SDS011;36257;46.052;12.540;2023-04-24T01:44:22;6.57;;;5.72;;
40931;SDS011;36257;46.052;12.540;2023-04-24T01:46:48;5.95;;;5.45;;
40931;SDS011;36257;46.052;12.540;2023-04-24T01:49:14;7.38;;;5.43;;
40931;SDS011;36257;46.052;12.540;2023-04-24T01:51:40;6.20;;;5.47;;
40931;SDS011;36257;46.052;12.540;2023-04-24T01:54:06;6.00;;;5.20;;
40931;SDS011;36257;46.052;12.540;2023-04-24T01:56:33;7.82;;;5.28;;
40931;SDS011;36257;46.052;12.540;2023-04-24T01:59:00;5.78;;;5.20;;
40931;SDS011;36257;46.052;12.540;2023-04-24T02:01:32;6.35;;;5.03;;
40931;SDS011;36257;46.052;12.540;2023-04-24T02:04:02;8.50;;;5.40;;
40931;SDS011;36257;46.052;12.540;2023-04-24T02:06:28;6.63;;;5.45;;
40931;SDS011;36257;46.052;12.540;2023-04-24T02:08:54;5.25;;;4.75;;
40931;SDS011;36257;46.052;12.540;2023-04-24T02:11:19;5.63;;;5.13;;
40931;SDS011;36257;46.052;12.540;2023-04-24T02:13:45;5.75;;;5.22;;
40931;SDS011;36257;46.052;12.540;2023-04-24T02:16:11;8.68;;;5.40;;
40931;SDS011;36257;46.052;12.540;2023-04-24T02:18:36;6.68;;;5.97;;
40931;SDS011;36257;46.052;12.540;2023-04-24T02:21:02;6.18;;;5.50;;
40931;SDS011;36257;46.052;12.540;2023-04-24T02:23:27;7.10;;;4.72;;
40931;SDS011;36257;46.052;12.540;2023-04-24T02:25:53;6.25;;;5.25;;
40931;SDS011;36257;46.052;12.540;2023-04-24T02:28:19;6.53;;;5.85;;
40931;SDS011;36257;46.052;12.540;2023-04-24T02:30:44;5.72;;;5.07;;
40931;SDS011;36257;46.052;12.540;2023-04-24T02:33:11;6.72;;;5.53;;
40931;SDS011;36257;46.052;12.540;2023-04-24T02:35:37;6.88;;;4.68;;
40931;SDS011;36257;46.052;12.540;2023-04-24T02:38:03;6.07;;;5.50;;
40931;SDS011;36257;46.052;12.540;2023-04-24T02:40:29;7.15;;;5.57;;
40931;SDS011;36257;46.052;12.540;2023-04-24T02:42:54;7.28;;;5.68;;
40931;SDS011;36257;46.052;12.540;2023-04-24T02:45:20;5.68;;;5.18;;
40931;SDS011;36257;46.052;12.540;2023-04-24T02:47:46;6.10;;;5.15;;
40931;SDS011;36257;46.052;12.540;2023-04-24T02:50:11;6.93;;;5.43;;
40931;SDS011;36257;46.052;12.540;2023-04-24T02:52:37;7.60;;;5.43;;
40931;SDS011;36257;46.052;12.540;2023-04-24T02:55:03;5.75;;;5.25;;
40931;SDS011;36257;46.052;12.540;2023-04-24T02:57:29;6.38;;;5.25;;
40931;SDS011;36257;46.052;12.540;2023-04-24T02:59:55;5.35;;;4.88;;
40931;SDS011;36257;46.052;12.540;2023-04-24T03:02:20;6.35;;;5.10;;
40931;SDS011;36257;46.052;12.540;2023-04-24T03:04:46;6.25;;;4.75;;
40931;SDS011;36257;46.052;12.540;2023-04-24T03:07:12;5.93;;;4.70;;
40931;SDS011;36257;46.052;12.540;2023-04-24T03:09:39;6.68;;;5.25;;
40931;SDS011;36257;46.052;12.540;2023-04-24T03:12:05;5.65;;;5.05;;
40931;SDS011;36257;46.052;12.540;2023-04-24T03:14:31;8.05;;;5.68;;
40931;SDS011;36257;46.052;12.540;2023-04-24T03:16:57;11.38;;;5.75;;
40931;SDS011;36257;46.052;12.540;2023-04-24T03:19:22;5.43;;;5.00;;
40931;SDS011;36257;46.052;12.540;2023-04-24T03:21:48;7.97;;;5.45;;
40931;SDS011;36257;46.052;12.540;2023-04-24T03:24:14;10.38;;;6.00;;
40931;SDS011;36257;46.052;12.540;2023-04-24T03:26:40;5.93;;;5.40;;
40931;SDS011;36257;46.052;12.540;2023-04-24T03:29:06;8.05;;;5.75;;
40931;SDS011;36257;46.052;12.540;2023-04-24T03:31:31;6.88;;;5.88;;
40931;SDS011;36257;46.052;12.540;2023-04-24T03:33:57;7.70;;;6.15;;
40931;SDS011;36257;46.052;12.540;2023-04-24T03:36:22;7.28;;;6.43;;
40931;SDS011;36257;46.052;12.540;2023-04-24T03:38:48;9.05;;;6.55;;
40931;SDS011;36257;46.052;12.540;2023-04-24T03:41:14;6.82;;;5.70;;
40931;SDS011;36257;46.052;12.540;2023-04-24T03:43:39;7.20;;;5.65;;
40931;SDS011;36257;46.052;12.540;2023-04-24T03:46:05;6.47;;;5.88;;
40931;SDS011;36257;46.052;12.540;2023-04-24T03:48:32;6.45;;;5.85;;
40931;SDS011;36257;46.052;12.540;2023-04-24T03:50:57;7.72;;;6.80;;
40931;SDS011;36257;46.052;12.540;2023-04-24T03:53:23;7.82;;;6.03;;
40931;SDS011;36257;46.052;12.540;2023-04-24T03:55:49;8.45;;;6.82;;
40931;SDS011;36257;46.052;12.540;2023-04-24T03:58:15;7.80;;;6.80;;
40931;SDS011;36257;46.052;12.540;2023-04-24T04:00:40;7.53;;;6.80;;
40931;SDS011;36257;46.052;12.540;2023-04-24T04:03:06;8.90;;;6.45;;
40931;SDS011;36257;46.052;12.540;2023-04-24T04:05:32;8.52;;;6.82;;
40931;SDS011;36257;46.052;12.540;2023-04-24T04:07:57;7.97;;;7.15;;
40931;SDS011;36257;46.052;12.540;2023-04-24T04:10:23;7.15;;;6.53;;
40931;SDS011;36257;46.052;12.540;2023-04-24T04:12:48;11.82;;;7.15;;
40931;SDS011;36257;46.052;12.540;2023-04-24T04:15:14;7.72;;;6.88;;
40931;SDS011;36257;46.052;12.540;2023-04-24T04:17:40;7.80;;;7.00;;
40931;SDS011;36257;46.052;12.540;2023-04-24T04:20:06;9.13;;;7.88;;
40931;SDS011;36257;46.052;12.540;2023-04-24T04:22:35;11.30;;;7.10;;
40931;SDS011;36257;46.052;12.540;2023-04-24T04:25:01;8.43;;;7.35;;
40931;SDS011;36257;46.052;12.540;2023-04-24T04:27:27;13.38;;;7.50;;
40931;SDS011;36257;46.052;12.540;2023-04-24T04:29:54;8.65;;;7.22;;
40931;SDS011;36257;46.052;12.540;2023-04-24T04:32:21;10.40;;;7.25;;
40931;SDS011;36257;46.052;12.540;2023-04-24T04:34:47;14.00;;;7.38;;
40931;SDS011;36257;46.052;12.540;2023-04-24T04:37:14;11.80;;;7.45;;
40931;SDS011;36257;46.052;12.540;2023-04-24T04:39:40;9.38;;;7.28;;
40931;SDS011;36257;46.052;12.540;2023-04-24T04:42:07;9.10;;;6.60;;
40931;SDS011;36257;46.052;12.540;2023-04-24T04:44:32;8.47;;;6.77;;
40931;SDS011;36257;46.052;12.540;2023-04-24T04:47:01;14.95;;;7.50;;
40931;SDS011;36257;46.052;12.540;2023-04-24T04:49:30;8.65;;;6.90;;
40931;SDS011;36257;46.052;12.540;2023-04-24T04:51:56;7.82;;;7.03;;
40931;SDS011;36257;46.052;12.540;2023-04-24T04:54:22;10.48;;;7.97;;
40931;SDS011;36257;46.052;12.540;2023-04-24T04:56:49;9.15;;;7.82;;
40931;SDS011;36257;46.052;12.540;2023-04-24T05:01:41;10.30;;;7.32;;
40931;SDS011;36257;46.052;12.540;2023-04-24T05:04:06;10.68;;;7.72;;
40931;SDS011;36257;46.052;12.540;2023-04-24T05:06:32;10.07;;;7.20;;
40931;SDS011;36257;46.052;12.540;2023-04-24T05:08:58;10.35;;;7.35;;
40931;SDS011;36257;46.052;12.540;2023-04-24T05:11:23;17.00;;;8.30;;
40931;SDS011;36257;46.052;12.540;2023-04-24T05:13:49;9.00;;;7.45;;
40931;SDS011;36257;46.052;12.540;2023-04-24T05:16:15;9.40;;;7.55;;
40931;SDS011;36257;46.052;12.540;2023-04-24T05:18:40;10.18;;;7.75;;
40931;SDS011;36257;46.052;12.540;2023-04-24T05:21:06;8.82;;;7.15;;
40931;SDS011;36257;46.052;12.540;2023-04-24T05:23:32;9.02;;;7.47;;
40931;SDS011;36257;46.052;12.540;2023-04-24T05:25:57;13.45;;;7.47;;
40931;SDS011;36257;46.052;12.540;2023-04-24T05:28:23;12.02;;;7.93;;
40931;SDS011;36257;46.052;12.540;2023-04-24T05:30:53;11.38;;;8.90;;
40931;SDS011;36257;46.052;12.540;2023-04-24T05:33:20;12.77;;;8.02;;
40931;SDS011;36257;46.052;12.540;2023-04-24T05:35:45;10.60;;;7.32;;
40931;SDS011;36257;46.052;12.540;2023-04-24T05:38:12;10.45;;;7.55;;
40931;SDS011;36257;46.052;12.540;2023-04-24T05:40:38;9.27;;;7.88;;
40931;SDS011;36257;46.052;12.540;2023-04-24T05:43:04;13.07;;;9.15;;
40931;SDS011;36257;46.052;12.540;2023-04-24T05:45:30;13.25;;;9.00;;
40931;SDS011;36257;46.052;12.540;2023-04-24T05:47:55;10.77;;;8.55;;
40931;SDS011;36257;46.052;12.540;2023-04-24T05:50:21;10.20;;;8.13;;
40931;SDS011;36257;46.052;12.540;2023-04-24T05:52:47;13.52;;;7.82;;
40931;SDS011;36257;46.052;12.540;2023-04-24T05:55:12;13.95;;;9.18;;
40931;SDS011;36257;46.052;12.540;2023-04-24T05:57:39;10.07;;;7.95;;
40931;SDS011;36257;46.052;12.540;2023-04-24T06:00:05;12.30;;;8.73;;
40931;SDS011;36257;46.052;12.540;2023-04-24T06:02:32;10.10;;;7.82;;
40931;SDS011;36257;46.052;12.540;2023-04-24T06:04:58;13.93;;;8.57;;
40931;SDS011;36257;46.052;12.540;2023-04-24T06:07:24;9.75;;;7.63;;
40931;SDS011;36257;46.052;12.540;2023-04-24T06:09:53;13.70;;;8.80;;
40931;SDS011;36257;46.052;12.540;2023-04-24T06:12:19;14.02;;;7.90;;
40931;SDS011;36257;46.052;12.540;2023-04-24T06:14:45;9.02;;;8.13;;
40931;SDS011;36257;46.052;12.540;2023-04-24T06:17:10;12.45;;;8.77;;
40931;SDS011;36257;46.052;12.540;2023-04-24T06:19:36;9.88;;;8.20;;
40931;SDS011;36257;46.052;12.540;2023-04-24T06:22:02;10.30;;;7.95;;
40931;SDS011;36257;46.052;12.540;2023-04-24T06:24:27;18.35;;;8.07;;
40931;SDS011;36257;46.052;12.540;2023-04-24T06:26:53;13.35;;;8.88;;
40931;SDS011;36257;46.052;12.540;2023-04-24T06:29:19;9.02;;;8.05;;
40931;SDS011;36257;46.052;12.540;2023-04-24T06:31:45;12.93;;;8.27;;
40931;SDS011;36257;46.052;12.540;2023-04-24T06:34:10;12.25;;;7.80;;
40931;SDS011;36257;46.052;12.540;2023-04-24T06:36:36;13.38;;;8.20;;
40931;SDS011;36257;46.052;12.540;2023-04-24T06:39:02;14.57;;;9.05;;
40931;SDS011;36257;46.052;12.540;2023-04-24T06:41:28;16.38;;;9.77;;
40931;SDS011;36257;46.052;12.540;2023-04-24T06:43:54;14.65;;;8.23;;
40931;SDS011;36257;46.052;12.540;2023-04-24T06:46:19;11.68;;;8.63;;
40931;SDS011;36257;46.052;12.540;2023-04-24T06:48:48;13.05;;;8.50;;
40931;SDS011;36257;46.052;12.540;2023-04-24T06:51:14;16.83;;;9.85;;
40931;SDS011;36257;46.052;12.540;2023-04-24T06:53:40;11.45;;;8.63;;
40931;SDS011;36257;46.052;12.540;2023-04-24T06:56:05;12.38;;;9.25;;
40931;SDS011;36257;46.052;12.540;2023-04-24T06:58:31;12.25;;;8.25;;
40931;SDS011;36257;46.052;12.540;2023-04-24T07:00:57;9.55;;;8.18;;
40931;SDS011;36257;46.052;12.540;2023-04-24T07:03:22;8.55;;;6.90;;
40931;SDS011;36257;46.052;12.540;2023-04-24T07:05:48;7.15;;;6.45;;
40931;SDS011;36257;46.052;12.540;2023-04-24T07:08:14;8.52;;;6.53;;
40931;SDS011;36257;46.052;12.540;2023-04-24T07:10:42;7.75;;;6.43;;
40931;SDS011;36257;46.052;12.540;2023-04-24T07:13:08;7.78;;;7.05;;
40931;SDS011;36257;46.052;12.540;2023-04-24T07:15:34;10.95;;;7.65;;
40931;SDS011;36257;46.052;12.540;2023-04-24T07:18:00;10.32;;;7.93;;
40931;SDS011;36257;46.052;12.540;2023-04-24T07:20:26;9.05;;;7.18;;
40931;SDS011;36257;46.052;12.540;2023-04-24T07:22:51;10.98;;;7.20;;
40931;SDS011;36257;46.052;12.540;2023-04-24T07:25:18;10.00;;;8.23;;
40931;SDS011;36257;46.052;12.540;2023-04-24T07:27:44;14.57;;;8.77;;
40931;SDS011;36257;46.052;12.540;2023-04-24T07:30:10;9.60;;;7.43;;
40931;SDS011;36257;46.052;12.540;2023-04-24T07:32:36;9.15;;;8.02;;
40931;SDS011;36257;46.052;12.540;2023-04-24T07:35:02;11.63;;;8.40;;
40931;SDS011;36257;46.052;12.540;2023-04-24T07:37:28;9.25;;;7.80;;
40931;SDS011;36257;46.052;12.540;2023-04-24T07:39:54;10.20;;;7.70;;
40931;SDS011;36257;46.052;12.540;2023-04-24T07:42:20;10.73;;;8.27;;
40931;SDS011;36257;46.052;12.540;2023-04-24T07:44:45;10.60;;;7.53;;
40931;SDS011;36257;46.052;12.540;2023-04-24T07:47:12;9.23;;;7.93;;
40931;SDS011;36257;46.052;12.540;2023-04-24T07:49:41;9.00;;;8.10;;
40931;SDS011;36257;46.052;12.540;2023-04-24T07:52:07;10.65;;;8.80;;
40931;SDS011;36257;46.052;12.540;2023-04-24T07:54:33;14.70;;;8.68;;
40931;SDS011;36257;46.052;12.540;2023-04-24T07:56:58;10.07;;;8.25;;
40931;SDS011;36257;46.052;12.540;2023-04-24T07:59:25;11.60;;;9.70;;
40931;SDS011;36257;46.052;12.540;2023-04-24T08:01:50;9.45;;;8.50;;
40931;SDS011;36257;46.052;12.540;2023-04-24T08:04:16;11.10;;;9.07;;
40931;SDS011;36257;46.052;12.540;2023-04-24T08:06:43;10.02;;;9.02;;
40931;SDS011;36257;46.052;12.540;2023-04-24T08:09:08;11.35;;;9.00;;
40931;SDS011;36257;46.052;12.540;2023-04-24T08:11:34;13.20;;;9.00;;
40931;SDS011;36257;46.052;12.540;2023-04-24T08:14:00;9.50;;;8.60;;
40931;SDS011;36257;46.052;12.540;2023-04-24T08:16:27;11.88;;;8.50;;
40931;SDS011;36257;46.052;12.540;2023-04-24T08:18:53;9.32;;;8.38;;
40931;SDS011;36257;46.052;12.540;2023-04-24T08:21:18;9.57;;;8.68;;
40931;SDS011;36257;46.052;12.540;2023-04-24T08:23:45;7.90;;;7.18;;
40931;SDS011;36257;46.052;12.540;2023-04-24T08:26:11;8.15;;;6.88;;
40931;SDS011;36257;46.052;12.540;2023-04-24T08:28:37;8.48;;;7.65;;
40931;SDS011;36257;46.052;12.540;2023-04-24T08:31:03;7.82;;;7.15;;
40931;SDS011;36257;46.052;12.540;2023-04-24T08:33:29;8.23;;;7.18;;
40931;SDS011;36257;46.052;12.540;2023-04-24T08:36:02;7.32;;;6.18;;
40931;SDS011;36257;46.052;12.540;2023-04-24T08:38:30;7.60;;;5.07;;
40931;SDS011;36257;46.052;12.540;2023-04-24T08:40:57;4.28;;;3.97;;
40931;SDS011;36257;46.052;12.540;2023-04-24T08:43:25;6.03;;;4.82;;
40931;SDS011;36257;46.052;12.540;2023-04-24T08:45:51;5.55;;;5.00;;
40931;SDS011;36257;46.052;12.540;2023-04-24T08:48:17;6.65;;;6.03;;
40931;SDS011;36257;46.052;12.540;2023-04-24T08:50:43;4.47;;;4.05;;
40931;SDS011;36257;46.052;12.540;2023-04-24T08:53:09;4.78;;;4.38;;
40931;SDS011;36257;46.052;12.540;2023-04-24T08:55:36;3.58;;;3.00;;
40931;SDS011;36257;46.052;12.540;2023-04-24T08:58:02;1.33;;;1.23;;
40931;SDS011;36257;46.052;12.540;2023-04-24T09:00:29;1.27;;;1.17;;
40931;SDS011;36257;46.052;12.540;2023-04-24T09:02:55;1.58;;;1.48;;
40931;SDS011;36257;46.052;12.540;2023-04-24T09:05:22;1.65;;;1.55;;
40931;SDS011;36257;46.052;12.540;2023-04-24T09:07:53;2.70;;;1.70;;
40931;SDS011;36257;46.052;12.540;2023-04-24T09:10:20;2.05;;;1.80;;
40931;SDS011;36257;46.052;12.540;2023-04-24T09:12:47;2.53;;;1.92;;
40931;SDS011;36257;46.052;12.540;2023-04-24T09:17:40;2.50;;;1.88;;
40931;SDS011;36257;46.052;12.540;2023-04-24T09:20:07;2.28;;;2.08;;
40931;SDS011;36257;46.052;12.540;2023-04-24T09:22:33;2.80;;;2.13;;
40931;SDS011;36257;46.052;12.540;2023-04-24T09:25:01;2.70;;;1.80;;
40931;SDS011;36257;46.052;12.540;2023-04-24T09:27:30;1.75;;;1.65;;
40931;SDS011;36257;46.052;12.540;2023-04-24T09:29:57;3.28;;;1.60;;
40931;SDS011;36257;46.052;12.540;2023-04-24T09:32:23;3.53;;;3.10;;
40931;SDS011;36257;46.052;12.540;2023-04-24T09:37:35;25.48;;;18.42;;
40931;SDS011;36257;46.052;12.540;2023-04-24T09:42:53;1.85;;;0.90;;
40931;SDS011;36257;46.052;12.540;2023-04-24T09:45:21;0.90;;;0.90;;
40931;SDS011;36257;46.052;12.540;2023-04-24T09:47:52;1.10;;;1.00;;
40931;SDS011;36257;46.052;12.540;2023-04-24T09:50:21;1.55;;;1.45;;
40931;SDS011;36257;46.052;12.540;2023-04-24T09:52:47;1.42;;;0.90;;
40931;SDS011;36257;46.052;12.540;2023-04-24T09:55:26;1.83;;;1.15;;
40931;SDS011;36257;46.052;12.540;2023-04-24T10:00:23;2.70;;;1.20;;
40931;SDS011;36257;46.052;12.540;2023-04-24T10:02:57;1.98;;;1.00;;
40931;SDS011;36257;46.052;12.540;2023-04-24T10:05:28;1.20;;;1.20;;
40931;SDS011;36257;46.052;12.540;2023-04-24T10:10:31;2.78;;;1.38;;
40931;SDS011;36257;46.052;12.540;2023-04-24T10:12:59;1.73;;;1.63;;
40931;SDS011;36257;46.052;12.540;2023-04-24T10:15:25;4.75;;;2.42;;
40931;SDS011;36257;46.052;12.540;2023-04-24T10:17:51;3.05;;;1.95;;
40931;SDS011;36257;46.052;12.540;2023-04-24T10:20:18;5.65;;;4.03;;
40931;SDS011;36257;46.052;12.540;2023-04-24T10:25:16;8.43;;;4.32;;
40931;SDS011;36257;46.052;12.540;2023-04-24T10:27:43;5.75;;;3.97;;
40931;SDS011;36257;46.052;12.540;2023-04-24T10:30:11;6.38;;;2.47;;
40931;SDS011;36257;46.052;12.540;2023-04-24T10:32:38;2.47;;;2.28;;
40931;SDS011;36257;46.052;12.540;2023-04-24T10:35:05;3.83;;;2.83;;
40931;SDS011;36257;46.052;12.540;2023-04-24T10:37:48;3.35;;;3.05;;
40931;SDS011;36257;46.052;12.540;2023-04-24T10:40:18;3.55;;;2.65;;
40931;SDS011;36257;46.052;12.540;2023-04-24T10:42:51;6.55;;;5.70;;
40931;SDS011;36257;46.052;12.540;2023-04-24T10:45:20;5.00;;;3.53;;
40931;SDS011;36257;46.052;12.540;2023-04-24T10:47:51;4.17;;;3.20;;
40931;SDS011;36257;46.052;12.540;2023-04-24T10:50:17;4.18;;;3.63;;
40931;SDS011;36257;46.052;12.540;2023-04-24T10:52:44;3.83;;;3.53;;
40931;SDS011;36257;46.052;12.540;2023-04-24T10:55:16;2.15;;;1.98;;
40931;SDS011;36257;46.052;12.540;2023-04-24T10:58:02;7.53;;;2.20;;
40931;SDS011;36257;46.052;12.540;2023-04-24T11:00:29;2.67;;;2.35;;
40931;SDS011;36257;46.052;12.540;2023-04-24T11:02:55;2.72;;;2.53;;
40931;SDS011;36257;46.052;12.540;2023-04-24T11:05:22;4.65;;;3.00;;
40931;SDS011;36257;46.052;12.540;2023-04-24T11:08:14;3.35;;;3.05;;
40931;SDS011;36257;46.052;12.540;2023-04-24T11:10:47;3.25;;;2.70;;
40931;SDS011;36257;46.052;12.540;2023-04-24T11:13:23;3.78;;;3.40;;
40931;SDS011;36257;46.052;12.540;2023-04-24T11:18:39;4.53;;;3.08;;
40931;SDS011;36257;46.052;12.540;2023-04-24T11:21:13;1.88;;;1.75;;
40931;SDS011;36257;46.052;12.540;2023-04-24T11:23:41;3.85;;;1.80;;
40931;SDS011;36257;46.052;12.540;2023-04-24T11:26:14;1.52;;;1.30;;
40931;SDS011;36257;46.052;12.540;2023-04-24T11:29:05;2.20;;;2.00;;
40931;SDS011;36257;46.052;12.540;2023-04-24T11:34:09;4.05;;;2.85;;
40931;SDS011;36257;46.052;12.540;2023-04-24T11:36:37;3.72;;;3.40;;
40931;SDS011;36257;46.052;12.540;2023-04-24T11:39:03;2.22;;;2.08;;
40931;SDS011;36257;46.052;12.540;2023-04-24T11:41:29;1.65;;;1.55;;
40931;SDS011;36257;46.052;12.540;2023-04-24T11:43:55;1.85;;;1.75;;
40931;SDS011;36257;46.052;12.540;2023-04-24T11:46:22;1.08;;;1.08;;
40931;SDS011;36257;46.052;12.540;2023-04-24T11:48:48;1.50;;;1.40;;
40931;SDS011;36257;46.052;12.540;2023-04-24T11:51:14;1.98;;;1.30;;
40931;SDS011;36257;46.052;12.540;2023-04-24T11:53:39;1.45;;;1.35;;
40931;SDS011;36257;46.052;12.540;2023-04-24T11:56:05;2.58;;;1.70;;
40931;SDS011;36257;46.052;12.540;2023-04-24T11:58:34;2.03;;;1.83;;
40931;SDS011;36257;46.052;12.540;2023-04-24T12:01:02;1.40;;;1.30;;
40931;SDS011;36257;46.052;12.540;2023-04-24T12:03:27;1.27;;;1.27;;
40931;SDS011;36257;46.052;12.540;2023-04-24T12:06:04;1.15;;;1.15;;
40931;SDS011;36257;46.052;12.540;2023-04-24T12:08:31;1.15;;;1.15;;
40931;SDS011;36257;46.052;12.540;2023-04-24T12:10:57;1.95;;;0.90;;
40931;SDS011;36257;46.052;12.540;2023-04-24T12:15:50;1.30;;;1.10;;
40931;SDS011;36257;46.052;12.540;2023-04-24T12:18:16;1.20;;;1.10;;
40931;SDS011;36257;46.052;12.540;2023-04-24T12:20:42;2.58;;;1.23;;
40931;SDS011;36257;46.052;12.540;2023-04-24T12:23:07;1.30;;;1.30;;
40931;SDS011;36257;46.052;12.540;2023-04-24T12:25:33;0.90;;;0.90;;
40931;SDS011;36257;46.052;12.540;2023-04-24T12:30:28;0.80;;;0.80;;
40931;SDS011;36257;46.052;12.540;2023-04-24T12:35:27;0.60;;;0.60;;
40931;SDS011;36257;46.052;12.540;2023-04-24T12:37:54;3.67;;;0.77;;
40931;SDS011;36257;46.052;12.540;2023-04-24T12:40:21;0.70;;;0.70;;
40931;SDS011;36257;46.052;12.540;2023-04-24T12:42:51;1.85;;;0.75;;
40931;SDS011;36257;46.052;12.540;2023-04-24T12:45:17;0.60;;;0.60;;
40931;SDS011;36257;46.052;12.540;2023-04-24T12:47:44;0.77;;;0.77;;
40931;SDS011;36257;46.052;12.540;2023-04-24T12:50:14;2.15;;;0.90;;
40931;SDS011;36257;46.052;12.540;2023-04-24T12:52:43;0.68;;;0.68;;
40931;SDS011;36257;46.052;12.540;2023-04-24T12:55:09;1.13;;;0.80;;
40931;SDS011;36257;46.052;12.540;2023-04-24T12:57:37;1.92;;;0.88;;
40931;SDS011;36257;46.052;12.540;2023-04-24T13:00:26;1.20;;;0.73;;
40931;SDS011;36257;46.052;12.540;2023-04-24T13:02:51;0.95;;;0.95;;
40931;SDS011;36257;46.052;12.540;2023-04-24T13:05:16;1.38;;;1.02;;
40931;SDS011;36257;46.052;12.540;2023-04-24T13:07:43;1.35;;;1.25;;
40931;SDS011;36257;46.052;12.540;2023-04-24T13:10:09;1.60;;;1.50;;
40931;SDS011;36257;46.052;12.540;2023-04-24T13:12:35;1.90;;;1.80;;
40931;SDS011;36257;46.052;12.540;2023-04-24T13:15:01;2.13;;;1.77;;
40931;SDS011;36257;46.052;12.540;2023-04-24T13:17:27;1.98;;;1.75;;
40931;SDS011;36257;46.052;12.540;2023-04-24T13:19:53;3.33;;;1.80;;
40931;SDS011;36257;46.052;12.540;2023-04-24T13:22:20;3.45;;;2.10;;
40931;SDS011;36257;46.052;12.540;2023-04-24T13:24:45;2.60;;;2.40;;
40931;SDS011;36257;46.052;12.540;2023-04-24T13:27:14;2.13;;;1.92;;
40931;SDS011;36257;46.052;12.540;2023-04-24T13:29:40;7.15;;;2.33;;
40931;SDS011;36257;46.052;12.540;2023-04-24T13:32:06;2.80;;;1.75;;
40931;SDS011;36257;46.052;12.540;2023-04-24T13:34:33;2.95;;;2.40;;
40931;SDS011;36257;46.052;12.540;2023-04-24T13:37:00;2.95;;;2.05;;
40931;SDS011;36257;46.052;12.540;2023-04-24T13:39:27;1.85;;;1.75;;
40931;SDS011;36257;46.052;12.540;2023-04-24T13:41:53;1.80;;;1.33;;
40931;SDS011;36257;46.052;12.540;2023-04-24T13:44:19;3.38;;;1.10;;
40931;SDS011;36257;46.052;12.540;2023-04-24T13:46:46;1.35;;;1.13;;
40931;SDS011;36257;46.052;12.540;2023-04-24T13:49:13;1.48;;;1.00;;
40931;SDS011;36257;46.052;12.540;2023-04-24T13:51:39;1.30;;;1.20;;
40931;SDS011;36257;46.052;12.540;2023-04-24T13:54:06;1.70;;;1.37;;
40931;SDS011;36257;46.052;12.540;2023-04-24T13:56:32;1.83;;;1.60;;
40931;SDS011;36257;46.052;12.540;2023-04-24T13:58:58;2.15;;;2.00;;
40931;SDS011;36257;46.052;12.540;2023-04-24T14:01:23;1.48;;;1.35;;
40931;SDS011;36257;46.052;12.540;2023-04-24T14:03:53;1.60;;;1.50;;
40931;SDS011;36257;46.052;12.540;2023-04-24T14:06:20;2.90;;;2.10;;
40931;SDS011;36257;46.052;12.540;2023-04-24T14:08:48;2.05;;;1.73;;
40931;SDS011;36257;46.052;12.540;2023-04-24T14:11:14;1.30;;;1.20;;
40931;SDS011;36257;46.052;12.540;2023-04-24T14:13:40;1.88;;;1.20;;
40931;SDS011;36257;46.052;12.540;2023-04-24T14:16:06;2.10;;;1.55;;
40931;SDS011;36257;46.052;12.540;2023-04-24T14:18:32;1.77;;;1.30;;
40931;SDS011;36257;46.052;12.540;2023-04-24T14:20:58;1.80;;;1.70;;
40931;SDS011;36257;46.052;12.540;2023-04-24T14:23:26;1.45;;;1.35;;
40931;SDS011;36257;46.052;12.540;2023-04-24T14:25:51;1.65;;;1.55;;
40931;SDS011;36257;46.052;12.540;2023-04-24T14:28:18;1.73;;;1.30;;
40931;SDS011;36257;46.052;12.540;2023-04-24T14:30:45;1.55;;;1.42;;
40931;SDS011;36257;46.052;12.540;2023-04-24T14:33:11;2.80;;;1.35;;
40931;SDS011;36257;46.052;12.540;2023-04-24T14:35:37;1.88;;;1.65;;
40931;SDS011;36257;46.052;12.540;2023-04-24T14:38:03;1.50;;;1.33;;
40931;SDS011;36257;46.052;12.540;2023-04-24T14:40:29;2.15;;;1.80;;
40931;SDS011;36257;46.052;12.540;2023-04-24T14:42:56;1.88;;;1.40;;
40931;SDS011;36257;46.052;12.540;2023-04-24T14:45:22;1.47;;;1.37;;
40931;SDS011;36257;46.052;12.540;2023-04-24T14:47:49;1.30;;;1.20;;
40931;SDS011;36257;46.052;12.540;2023-04-24T14:50:14;1.13;;;1.02;;
40931;SDS011;36257;46.052;12.540;2023-04-24T14:52:40;2.08;;;1.48;;
40931;SDS011;36257;46.052;12.540;2023-04-24T14:55:06;1.55;;;1.45;;
40931;SDS011;36257;46.052;12.540;2023-04-24T14:57:32;1.58;;;1.48;;
40931;SDS011;36257;46.052;12.540;2023-04-24T14:59:58;1.38;;;1.23;;